Time;durP1;ratioP1;P1;durP2;ratioP2;P2;SDS_P1;SDS_P2;PMS_P1;PMS_P2;Temp;Humidity;BMP_temperature;BMP_pressure;BME280_temperature;BME280_humidity;BME280_pressure;Samples;Min_cycle;Max_cycle;Signal;HPM_P1;HPM_P2
2022/08/27 00:01:38;;;;;;;6.68;3.40;;;18.20;99.90;;;;;;5098382;28;20199;-84
2022/08/27 00:04:05;;;;;;;10.32;3.65;;;18.10;99.90;;;;;;5096363;28;20212;-83
2022/08/27 00:06:34;;;;;;;5.90;3.03;;;18.10;99.90;;;;;;5095864;28;20546;-82
2022/08/27 00:09:02;;;;;;;4.82;3.03;;;18.10;99.90;;;;;;5091449;28;20311;-83
2022/08/27 00:11:31;;;;;;;8.82;3.45;;;18.10;99.90;;;;;;5070761;28;20205;-84
2022/08/27 00:13:58;;;;;;;7.30;3.70;;;18.10;99.90;;;;;;5097629;28;20208;-83
2022/08/27 00:16:25;;;;;;;7.18;3.40;;;18.10;99.90;;;;;;5062926;28;20473;-81
2022/08/27 00:18:54;;;;;;;5.55;3.30;;;18.10;99.90;;;;;;5094482;28;20216;-85
2022/08/27 00:21:23;;;;;;;5.05;3.00;;;18.00;99.90;;;;;;5093984;28;20271;-83
2022/08/27 00:23:50;;;;;;;6.65;3.25;;;18.10;99.90;;;;;;5088888;28;20204;-83
2022/08/27 00:26:17;;;;;;;7.75;3.53;;;18.00;99.90;;;;;;5089746;28;20215;-81
2022/08/27 00:28:47;;;;;;;9.50;3.08;;;18.00;99.90;;;;;;5095024;28;20230;-84
2022/08/27 00:31:17;;;;;;;7.13;3.60;;;17.90;99.90;;;;;;5082447;28;20593;-84
2022/08/27 00:33:47;;;;;;;6.38;3.00;;;18.00;99.90;;;;;;5086309;28;20228;-84
2022/08/27 00:36:14;;;;;;;6.93;3.80;;;17.90;99.90;;;;;;5101056;28;20219;-82
2022/08/27 00:38:48;;;;;;;9.20;3.13;;;17.80;99.90;;;;;;5103392;28;20223;-83
2022/08/27 00:41:21;;;;;;;7.85;3.53;;;17.80;99.90;;;;;;5078983;28;20207;-84
2022/08/27 00:43:56;;;;;;;5.82;3.38;;;17.70;99.90;;;;;;5086489;28;20234;-84
2022/08/27 00:46:32;;;;;;;7.32;3.92;;;17.70;99.90;;;;;;5100247;28;20274;-83
2022/08/27 00:49:04;;;;;;;10.30;3.27;;;17.50;99.90;;;;;;5093611;28;20586;-84
2022/08/27 00:51:31;;;;;;;11.53;3.53;;;17.50;99.90;;;;;;5093502;28;20208;-82
2022/08/27 00:54:01;;;;;;;9.97;3.73;;;17.40;99.90;;;;;;5090023;28;20291;-82
2022/08/27 00:56:38;;;;;;;8.70;3.43;;;17.30;99.90;;;;;;5095310;28;20219;-83
2022/08/27 00:59:05;;;;;;;8.87;3.63;;;17.20;99.90;;;;;;5100113;28;20207;-83
2022/08/27 01:02:17;;;;;;;8.00;3.77;;;17.10;99.90;;;;;;5098126;28;20208;-83
2022/08/27 01:04:27;;;;;;;11.13;4.17;;;17.10;99.90;;;;;;5087318;28;20224;-83
2022/08/27 01:06:54;;;;;;;6.80;3.63;;;17.00;99.90;;;;;;5101217;28;20291;-83
2022/08/27 01:09:22;;;;;;;5.50;3.57;;;16.90;99.90;;;;;;5085515;28;20732;-82
2022/08/27 01:11:49;;;;;;;7.53;3.47;;;16.90;99.90;;;;;;5092372;28;20686;-84
2022/08/27 01:14:17;;;;;;;6.23;3.50;;;16.80;99.90;;;;;;5073584;28;20200;-85
2022/08/27 01:16:53;;;;;;;7.47;4.17;;;16.80;99.90;;;;;;5081123;28;20234;-85
2022/08/27 01:19:46;;;;;;;10.50;4.30;;;16.70;99.90;;;;;;5070179;28;20204;-84
2022/08/27 01:22:38;;;;;;;8.17;4.37;;;16.70;99.90;;;;;;5087399;28;20653;-86
2022/08/27 01:25:08;;;;;;;8.60;3.47;;;16.70;99.90;;;;;;5077624;28;20541;-87
2022/08/27 01:27:36;;;;;;;8.43;4.27;;;16.70;99.90;;;;;;5085077;28;20234;-84
2022/08/27 01:30:07;;;;;;;7.10;3.37;;;16.60;99.90;;;;;;5082221;28;20216;-85
2022/08/27 01:32:37;;;;;;;5.47;4.10;;;16.50;99.90;;;;;;5091584;28;20200;-86
2022/08/27 01:35:08;;;;;;;7.23;4.30;;;16.50;99.90;;;;;;5091115;28;20679;-84
2022/08/27 01:37:36;;;;;;;12.27;4.53;;;16.50;99.90;;;;;;5090083;28;20666;-84
2022/08/27 01:40:07;;;;;;;8.87;4.73;;;16.40;99.90;;;;;;5072791;28;20227;-87
2022/08/27 01:42:46;;;;;;;8.27;4.00;;;16.40;99.90;;;;;;5085917;28;20208;-85
2022/08/27 01:45:21;;;;;;;11.00;4.20;;;16.40;99.90;;;;;;5081192;28;20196;-86
2022/08/27 01:47:48;;;;;;;9.23;4.20;;;16.40;99.90;;;;;;5092147;28;20218;-85
2022/08/27 01:50:19;;;;;;;9.27;4.03;;;16.40;99.90;;;;;;5096119;28;20216;-87
2022/08/27 01:52:49;;;;;;;10.73;4.13;;;16.30;99.90;;;;;;5072307;28;20214;-85
2022/08/27 01:55:20;;;;;;;8.17;3.77;;;16.30;99.90;;;;;;5092995;28;20292;-86
2022/08/27 01:57:47;;;;;;;8.53;3.70;;;16.20;99.90;;;;;;5081453;28;20294;-85
2022/08/27 02:00:35;;;;;;;8.20;4.23;;;16.20;99.90;;;;;;5070248;28;20211;-84
2022/08/27 02:03:07;;;;;;;7.47;4.07;;;16.10;99.90;;;;;;5098273;28;20342;-86
2022/08/27 02:05:38;;;;;;;9.90;3.93;;;16.10;99.90;;;;;;5067118;28;20203;-84
2022/08/27 02:08:14;;;;;;;6.30;4.30;;;16.10;99.90;;;;;;5092158;28;20628;-85
2022/08/27 02:10:44;;;;;;;6.77;4.33;;;16.00;99.90;;;;;;5080225;28;20197;-86
2022/08/27 02:13:15;;;;;;;9.83;4.40;;;16.00;99.90;;;;;;5106423;28;20195;-84
2022/08/27 02:15:43;;;;;;;6.47;4.27;;;16.00;99.90;;;;;;5096995;28;20200;-84
2022/08/27 02:18:13;;;;;;;9.77;4.17;;;16.00;99.90;;;;;;5086194;28;20554;-84
2022/08/27 02:20:43;;;;;;;7.33;4.47;;;15.90;99.90;;;;;;5086603;28;20203;-85
2022/08/27 02:23:11;;;;;;;8.33;4.70;;;15.90;99.90;;;;;;5069645;28;20210;-83
2022/08/27 02:25:41;;;;;;;6.57;4.13;;;15.90;99.90;;;;;;5081315;28;20279;-85
2022/08/27 02:28:09;;;;;;;10.83;4.83;;;15.90;99.90;;;;;;5097911;28;20226;-86
2022/08/27 02:30:37;;;;;;;7.63;4.23;;;15.90;99.90;;;;;;5086587;28;20210;-86
2022/08/27 02:33:04;;;;;;;11.00;4.37;;;15.90;99.90;;;;;;5086927;28;20209;-87
2022/08/27 02:35:36;;;;;;;9.70;4.57;;;15.90;99.90;;;;;;5073264;28;20206;-85
2022/08/27 02:38:03;;;;;;;7.40;4.87;;;15.90;99.90;;;;;;5090655;28;20310;-83
2022/08/27 02:40:31;;;;;;;8.53;4.77;;;15.90;99.90;;;;;;5091901;28;20471;-85
2022/08/27 02:43:03;;;;;;;7.03;4.57;;;15.90;99.90;;;;;;5083215;28;20232;-84
2022/08/27 02:45:31;;;;;;;9.90;4.47;;;15.90;99.90;;;;;;5083145;28;20201;-85
2022/08/27 02:48:01;;;;;;;9.43;4.33;;;15.90;99.90;;;;;;5092024;28;20200;-84
2022/08/27 02:50:29;;;;;;;14.87;4.77;;;15.90;99.90;;;;;;5070943;28;20263;-85
2022/08/27 02:52:56;;;;;;;7.33;4.20;;;15.90;99.90;;;;;;5088243;28;20261;-85
2022/08/27 02:55:23;;;;;;;8.33;4.33;;;15.80;99.90;;;;;;5086874;28;20926;-84
2022/08/27 02:57:50;;;;;;;8.30;4.23;;;15.80;99.90;;;;;;5080852;28;20227;-84
2022/08/27 03:00:22;;;;;;;9.60;4.73;;;15.80;99.90;;;;;;5083138;28;20218;-84
2022/08/27 03:02:50;;;;;;;10.20;4.43;;;15.80;99.90;;;;;;5071778;28;20202;-84
2022/08/27 03:05:18;;;;;;;5.60;4.00;;;16.00;99.90;;;;;;5095666;28;20215;-85
2022/08/27 03:07:45;;;;;;;8.00;4.17;;;15.80;99.90;;;;;;5095009;28;20212;-84
2022/08/27 03:10:17;;;;;;;8.83;4.83;;;15.80;99.90;;;;;;5075800;28;20203;-83
2022/08/27 03:12:45;;;;;;;10.13;4.50;;;15.80;99.90;;;;;;5073036;28;20202;-83
2022/08/27 03:15:15;;;;;;;8.17;4.80;;;15.80;99.90;;;;;;5087531;28;20656;-85
2022/08/27 03:20:39;;;;;;;8.00;4.70;;;15.90;99.90;;;;;;5091918;28;20240;-85
2022/08/27 03:23:09;;;;;;;9.40;5.00;;;15.90;99.90;;;;;;5068604;28;20618;-85
2022/08/27 03:25:44;;;;;;;9.17;4.97;;;15.90;99.90;;;;;;5090682;28;20192;-84
2022/08/27 03:28:14;;;;;;;7.93;4.57;;;15.90;99.90;;;;;;5062404;28;20242;-84
2022/08/27 03:30:59;;;;;;;8.13;4.87;;;16.00;99.90;;;;;;5090915;28;20212;-84
2022/08/27 03:33:28;;;;;;;8.37;4.50;;;16.00;99.90;;;;;;5073192;28;20213;-84
2022/08/27 03:35:56;;;;;;;8.37;4.63;;;16.00;99.90;;;;;;5092439;28;21106;-86
2022/08/27 03:38:24;;;;;;;10.07;4.90;;;16.00;99.90;;;;;;5086062;28;20673;-85
2022/08/27 03:40:51;;;;;;;8.30;4.20;;;16.00;99.90;;;;;;5088819;28;20215;-85
2022/08/27 03:43:21;;;;;;;9.40;4.70;;;16.00;99.90;;;;;;5097915;28;20207;-87
2022/08/27 03:45:50;;;;;;;8.63;4.67;;;16.00;99.90;;;;;;5090065;28;20278;-83
2022/08/27 03:48:29;;;;;;;7.67;4.50;;;16.00;99.90;;;;;;5086927;28;20221;-84
2022/08/27 03:50:58;;;;;;;7.57;4.70;;;16.00;99.90;;;;;;5092474;28;20204;-83
2022/08/27 03:53:25;;;;;;;7.10;4.27;;;16.00;99.90;;;;;;5096283;28;20212;-84
2022/08/27 03:55:52;;;;;;;10.33;4.50;;;15.90;99.90;;;;;;5085077;28;20291;-84
2022/08/27 03:58:20;;;;;;;10.50;5.07;;;15.90;99.90;;;;;;5089858;28;20705;-84
2022/08/27 04:01:00;;;;;;;6.97;4.60;;;15.90;99.90;;;;;;5092459;28;20277;-85
2022/08/27 04:03:29;;;;;;;8.93;5.43;;;15.80;99.90;;;;;;5082055;28;20200;-84
2022/08/27 04:05:57;;;;;;;9.13;5.20;;;15.90;99.90;;;;;;5096880;28;20200;-84
2022/08/27 04:08:32;;;;;;;8.83;4.90;;;15.80;99.90;;;;;;5097432;28;20215;-85
2022/08/27 04:11:04;;;;;;;6.80;5.30;;;15.80;99.90;;;;;;5076229;28;20321;-83
2022/08/27 04:13:31;;;;;;;10.37;5.80;;;15.80;99.90;;;;;;5071191;28;20294;-85
2022/08/27 04:16:00;;;;;;;8.10;4.87;;;15.80;99.90;;;;;;5090216;28;20548;-84
2022/08/27 04:18:27;;;;;;;9.10;5.33;;;15.80;99.90;;;;;;5098201;28;20250;-86
2022/08/27 04:20:55;;;;;;;9.90;5.40;;;15.80;99.90;;;;;;5093777;28;20357;-86
2022/08/27 04:23:22;;;;;;;7.40;4.67;;;15.70;99.90;;;;;;5077647;28;20793;-85
2022/08/27 04:25:56;;;;;;;10.73;5.27;;;15.70;99.90;;;;;;5099412;28;20206;-86
2022/08/27 04:28:23;;;;;;;7.53;4.93;;;15.70;99.90;;;;;;5098030;28;20226;-85
2022/08/27 04:30:52;;;;;;;9.63;5.50;;;15.70;99.90;;;;;;5096616;28;20206;-86
2022/08/27 04:33:23;;;;;;;8.17;5.30;;;15.70;99.90;;;;;;5096222;28;20234;-86
2022/08/27 04:36:06;;;;;;;9.60;5.50;;;15.60;99.90;;;;;;5087356;28;20242;-87
2022/08/27 04:38:33;;;;;;;7.93;4.97;;;15.70;99.90;;;;;;5092192;28;20248;-85
2022/08/27 04:41:21;;;;;;;10.80;4.97;;;15.60;99.90;;;;;;5093976;28;20215;-85
2022/08/27 04:43:55;;;;;;;12.67;5.60;;;15.60;99.90;;;;;;5081256;28;20574;-83
2022/08/27 04:46:29;;;;;;;10.40;5.17;;;15.60;99.90;;;;;;5078666;28;20200;-86
2022/08/27 04:48:58;;;;;;;7.93;5.10;;;15.60;99.90;;;;;;5078051;28;20213;-85
2022/08/27 04:51:27;;;;;;;11.03;5.83;;;16.10;99.90;;;;;;5076548;28;20447;-87
2022/08/27 04:54:00;;;;;;;11.67;5.57;;;15.50;99.90;;;;;;5083802;28;20217;-86
2022/08/27 04:56:30;;;;;;;8.93;5.23;;;15.50;99.90;;;;;;5071312;28;20205;-83
2022/08/27 04:59:10;;;;;;;9.43;5.80;;;15.50;99.90;;;;;;5082356;28;20222;-85
2022/08/27 05:01:43;;;;;;;11.43;6.30;;;15.50;99.90;;;;;;5095524;28;20584;-87
2022/08/27 05:04:13;;;;;;;8.77;5.60;;;15.60;99.90;;;;;;5071864;28;20937;-87
2022/08/27 05:06:44;;;;;;;11.23;5.73;;;15.50;99.90;;;;;;5085957;28;20224;-85
2022/08/27 05:09:16;;;;;;;8.13;5.83;;;15.50;99.90;;;;;;5104865;28;20237;-84
2022/08/27 05:11:53;;;;;;;7.87;4.97;;;16.00;99.90;;;;;;5103988;28;20651;-85
2022/08/27 05:14:21;;;;;;;7.37;5.37;;;15.50;99.90;;;;;;5099716;28;20205;-86
2022/08/27 05:16:49;;;;;;;9.93;5.43;;;15.50;99.90;;;;;;5097761;28;20268;-84
2022/08/27 05:19:20;;;;;;;8.50;5.40;;;15.50;99.90;;;;;;5103420;28;20712;-85
2022/08/27 05:21:51;;;;;;;9.33;5.80;;;15.50;99.90;;;;;;5088536;28;20219;-86
2022/08/27 05:24:21;;;;;;;13.67;5.60;;;15.60;99.90;;;;;;5081677;28;20580;-85
2022/08/27 05:26:49;;;;;;;11.10;5.23;;;15.60;99.90;;;;;;5072309;28;20307;-85
2022/08/27 05:29:16;;;;;;;9.33;5.37;;;15.60;99.90;;;;;;5072175;28;20269;-85
2022/08/27 05:31:46;;;;;;;8.77;5.00;;;15.70;99.90;;;;;;5085600;28;20344;-85
2022/08/27 05:34:14;;;;;;;10.40;5.27;;;15.60;99.90;;;;;;5086039;28;20227;-86
2022/08/27 05:36:51;;;;;;;12.20;5.83;;;15.60;99.90;;;;;;5084201;28;20323;-85
2022/08/27 05:39:19;;;;;;;10.93;5.47;;;15.90;99.90;;;;;;5090751;28;20233;-86
2022/08/27 05:41:46;;;;;;;15.30;6.00;;;15.50;99.90;;;;;;5095485;28;20294;-85
2022/08/27 05:44:14;;;;;;;11.13;5.43;;;15.70;99.90;;;;;;5089035;28;20267;-85
2022/08/27 05:47:02;;;;;;;9.30;5.37;;;15.80;99.90;;;;;;5092722;28;20200;-86
2022/08/27 05:49:30;;;;;;;8.57;5.40;;;;;;;;;;5082401;28;20226;-82
2022/08/27 05:51:57;;;;;;;9.20;5.23;;;15.80;99.90;;;;;;5079532;28;20239;-84
2022/08/27 05:54:24;;;;;;;9.17;5.43;;;15.90;99.90;;;;;;5097478;28;20222;-85
2022/08/27 05:56:51;;;;;;;8.37;5.43;;;15.90;99.90;;;;;;5098917;28;20272;-85
2022/08/27 06:02:07;;;;;;;9.20;6.27;;;16.00;99.90;;;;;;5101100;28;20458;-85
2022/08/27 06:04:35;;;;;;;10.67;6.13;;;16.00;99.90;;;;;;5077032;28;20204;-84
2022/08/27 06:07:03;;;;;;;8.70;5.20;;;16.10;99.90;;;;;;5074840;28;20545;-84
2022/08/27 06:09:30;;;;;;;8.70;4.60;;;16.10;99.90;;;;;;5077752;28;20211;-83
2022/08/27 06:12:00;;;;;;;9.37;5.47;;;16.20;99.90;;;;;;5089224;28;20211;-84
2022/08/27 06:14:28;;;;;;;6.70;4.13;;;16.20;99.90;;;;;;5091531;28;20211;-82
2022/08/27 06:16:55;;;;;;;11.27;4.60;;;16.30;99.90;;;;;;5069287;28;20204;-83
2022/08/27 06:19:23;;;;;;;8.53;4.00;;;16.40;99.90;;;;;;5070315;28;20680;-84
2022/08/27 06:21:50;;;;;;;9.97;4.07;;;16.50;99.90;;;;;;5074474;28;20535;-86
2022/08/27 06:24:37;;;;;;;5.57;3.83;;;16.60;99.90;;;;;;5070880;28;20212;-85
2022/08/27 06:27:05;;;;;;;6.78;3.50;;;17.10;99.90;;;;;;5075642;28;20221;-87
2022/08/27 06:29:33;;;;;;;5.13;3.33;;;17.80;99.90;;;;;;5075255;28;20200;-84
2022/08/27 06:32:02;;;;;;;7.75;3.38;;;18.30;99.90;;;;;;5086671;28;20205;-83
2022/08/27 06:34:31;;;;;;;9.88;4.53;;;18.50;99.90;;;;;;5070523;28;20200;-86
2022/08/27 06:36:58;;;;;;;6.45;3.20;;;18.60;99.90;;;;;;5080549;28;20269;-83
2022/08/27 06:39:25;;;;;;;8.30;3.72;;;18.80;99.90;;;;;;5064192;28;20275;-82
2022/08/27 06:41:52;;;;;;;5.78;2.97;;;18.90;99.90;;;;;;5066334;28;20646;-81
2022/08/27 06:44:23;;;;;;;7.18;2.78;;;18.90;99.90;;;;;;5081294;28;20319;-83
2022/08/27 06:46:50;;;;;;;5.43;2.63;;;19.00;99.90;;;;;;5062175;28;20208;-83
2022/08/27 06:49:17;;;;;;;7.18;2.70;;;19.40;99.90;;;;;;5079695;28;20209;-82
2022/08/27 06:51:47;;;;;;;6.43;2.60;;;19.80;99.90;;;;;;5073923;28;20223;-83
2022/08/27 06:54:15;;;;;;;5.30;2.25;;;20.50;99.90;;;;;;5088316;28;20216;-82
2022/08/27 06:56:46;;;;;;;5.25;2.20;;;21.20;99.90;;;;;;5076305;28;20200;-83
2022/08/27 06:59:15;;;;;;;6.35;2.20;;;22.00;99.90;;;;;;5065196;28;20282;-80
2022/08/27 07:01:45;;;;;;;5.22;2.60;;;22.40;99.90;;;;;;5074688;28;20299;-81
2022/08/27 07:04:19;;;;;;;6.75;1.98;;;22.70;99.90;;;;;;5078408;28;20224;-81
2022/08/27 07:06:46;;;;;;;7.22;2.25;;;23.30;99.90;;;;;;5059404;28;20220;-80
2022/08/27 07:09:15;;;;;;;3.67;1.67;;;23.80;99.90;;;;;;5065258;28;20559;-83
2022/08/27 07:11:42;;;;;;;3.88;2.05;;;24.10;99.90;;;;;;5084652;28;20204;-81
2022/08/27 07:14:09;;;;;;;3.45;1.80;;;24.70;99.90;;;;;;5066354;28;20203;-79
2022/08/27 07:16:36;;;;;;;2.83;2.03;;;25.30;99.90;;;;;;5066648;28;20273;-82
2022/08/27 07:19:07;;;;;;;2.80;1.52;;;25.90;99.90;;;;;;5055125;28;20232;-82
2022/08/27 07:21:38;;;;;;;4.10;1.70;;;26.40;99.90;;;;;;5064276;28;20216;-81
2022/08/27 07:24:07;;;;;;;3.72;1.80;;;26.90;99.90;;;;;;5062768;28;20196;-79
2022/08/27 07:26:38;;;;;;;5.28;1.73;;;27.30;99.90;;;;;;5069698;28;20199;-84
2022/08/27 07:29:06;;;;;;;2.55;1.50;;;27.50;99.90;;;;;;5067072;28;20250;-81
2022/08/27 07:31:35;;;;;;;6.13;2.10;;;27.80;99.90;;;;;;5059538;28;20243;-81
2022/08/27 07:34:03;;;;;;;4.22;1.70;;;28.00;99.90;;;;;;5066882;28;20675;-81
2022/08/27 07:36:31;;;;;;;5.68;1.80;;;28.00;99.90;;;;;;5072840;28;20306;-78
2022/08/27 07:38:59;;;;;;;4.78;1.50;;;28.30;99.90;;;;;;5072156;28;20231;-80
2022/08/27 07:41:28;;;;;;;2.47;1.20;;;28.40;99.90;;;;;;5070611;28;20200;-80
2022/08/27 07:46:45;;;;;;;5.40;1.85;;;28.80;99.90;;;;;;5077921;28;20526;-82
2022/08/27 07:49:16;;;;;;;2.53;1.35;;;29.10;99.90;;;;;;5065273;28;20311;-80
2022/08/27 07:51:44;;;;;;;5.70;1.35;;;29.40;99.00;;;;;;5070041;28;20269;-82
2022/08/27 07:54:11;;;;;;;6.40;1.67;;;29.50;98.00;;;;;;5071856;28;20211;-81
2022/08/27 07:56:39;;;;;;;3.75;1.27;;;29.50;97.30;;;;;;5061540;28;20261;-80
2022/08/27 07:59:06;;;;;;;7.45;1.40;;;29.50;96.80;;;;;;5061824;28;20231;-81
2022/08/27 08:01:34;;;;;;;4.78;1.55;;;29.60;96.70;;;;;;5061282;28;20221;-81
2022/08/27 08:04:01;;;;;;;3.03;1.00;;;29.70;95.50;;;;;;5063045;28;20736;-80
2022/08/27 08:06:28;;;;;;;3.65;1.10;;;29.70;94.50;;;;;;5075147;28;20228;-82
2022/08/27 08:08:55;;;;;;;2.72;1.50;;;29.20;93.80;;;;;;5078156;28;20295;-81
2022/08/27 08:11:22;;;;;;;2.63;1.10;;;28.60;93.90;;;;;;5078274;28;20218;-80
2022/08/27 08:13:49;;;;;;;3.97;1.40;;;28.00;94.00;;;;;;5065495;28;20205;-82
2022/08/27 08:16:22;;;;;;;3.72;1.25;;;27.60;94.60;;;;;;5079308;28;20311;-82
2022/08/27 08:18:58;;;;;;;4.55;1.33;;;27.50;95.20;;;;;;5057216;28;20220;-82
2022/08/27 08:21:26;;;;;;;5.15;1.50;;;27.40;95.50;;;;;;5075936;28;20216;-82
2022/08/27 08:24:05;;;;;;;;;;;;;;;;;;;;;
2022/08/27 08:26:40;;;;;;;2.20;1.27;;;27.30;96.20;;;;;;5075733;28;20563;-80
2022/08/27 08:29:07;;;;;;;4.65;1.30;;;27.40;96.00;;;;;;5057886;28;20208;-81
2022/08/27 08:31:40;;;;;;;2.72;1.38;;;27.40;96.00;;;;;;5079864;28;20689;-81
2022/08/27 08:34:08;;;;;;;4.80;1.50;;;26.90;95.90;;;;;;5063709;28;20291;-78
2022/08/27 08:36:39;;;;;;;3.03;1.35;;;26.20;96.70;;;;;;5083357;28;20302;-78
2022/08/27 08:39:07;;;;;;;4.60;1.67;;;25.80;96.80;;;;;;5081182;28;20219;-77
2022/08/27 08:41:45;;;;;;;4.03;1.40;;;25.40;97.50;;;;;;5057503;28;20521;-81
2022/08/27 08:44:35;;;;;;;4.68;1.48;;;25.60;98.80;;;;;;5062144;28;20687;-78
2022/08/27 08:47:21;;;;;;;3.45;1.30;;;26.10;97.60;;;;;;5073017;28;20210;-79
2022/08/27 08:50:10;;;;;;;4.10;1.65;;;26.20;97.30;;;;;;5058245;28;20318;-80
2022/08/27 08:53:04;;;;;;;3.22;1.38;;;25.90;97.30;;;;;;5074517;28;20220;-78
2022/08/27 08:55:51;;;;;;;6.60;2.05;;;25.60;97.50;;;;;;5062879;28;20209;-80
2022/08/27 08:58:43;;;;;;;3.45;1.40;;;25.40;98.10;;;;;;5076548;28;20239;-79
2022/08/27 09:01:14;;;;;;;5.32;1.65;;;25.10;98.30;;;;;;5078591;28;20264;-79
2022/08/27 09:03:50;;;;;;;7.30;1.60;;;24.80;98.70;;;;;;5056916;28;20223;-79
2022/08/27 09:06:36;;;;;;;4.63;1.60;;;24.60;99.00;;;;;;5074002;28;20220;-79
2022/08/27 09:09:15;;;;;;;4.40;1.52;;;24.40;99.90;;;;;;5077028;28;20222;-81
2022/08/27 09:11:51;;;;;;;2.53;1.25;;;24.30;99.90;;;;;;5081877;28;20266;-80
2022/08/27 09:14:40;;;;;;;3.75;1.73;;;24.30;99.90;;;;;;5057567;28;20303;-79
2022/08/27 09:17:12;;;;;;;3.53;1.40;;;24.20;99.60;;;;;;5078438;28;20297;-79
2022/08/27 09:19:42;;;;;;;4.80;1.88;;;24.30;99.90;;;;;;5077823;28;20228;-79
2022/08/27 09:22:27;;;;;;;3.85;1.40;;;24.90;99.90;;;;;;5077132;28;20216;-80
2022/08/27 09:25:04;;;;;;;4.10;1.52;;;25.50;99.90;;;;;;5074515;28;20211;-79
2022/08/27 09:27:35;;;;;;;5.22;1.73;;;25.50;98.70;;;;;;5056073;28;20319;-80
2022/08/27 09:30:24;;;;;;;2.83;1.30;;;25.60;99.60;;;;;;5054038;28;20209;-78
2022/08/27 09:32:59;;;;;;;5.95;2.20;;;26.00;99.70;;;;;;5052845;28;20200;-79
2022/08/27 09:35:37;;;;;;;3.28;1.30;;;26.50;98.90;;;;;;5057448;28;20204;-80
2022/08/27 09:38:05;;;;;;;3.78;1.40;;;27.30;97.50;;;;;;5062378;28;20228;-79
2022/08/27 09:40:40;;;;;;;3.58;1.50;;;27.10;96.80;;;;;;5056872;28;20204;-83
2022/08/27 09:43:23;;;;;;;3.95;1.38;;;27.10;96.90;;;;;;5051675;28;20745;-79
2022/08/27 09:45:54;;;;;;;4.63;1.55;;;26.70;96.70;;;;;;5062206;28;20223;-78
2022/08/27 09:48:29;;;;;;;2.63;1.23;;;26.50;97.10;;;;;;5057058;28;20500;-79
2022/08/27 09:50:59;;;;;;;4.10;1.30;;;26.10;97.00;;;;;;5061806;28;20204;-78
2022/08/27 09:53:30;;;;;;;4.20;1.42;;;26.20;97.80;;;;;;5062119;28;20200;-79
2022/08/27 09:56:00;;;;;;;3.90;1.40;;;25.70;97.90;;;;;;5058298;28;20205;-80
2022/08/27 09:58:32;;;;;;;3.90;1.25;;;25.60;97.70;;;;;;5053792;28;20251;-81
2022/08/27 10:01:14;;;;;;;3.55;1.40;;;25.50;98.30;;;;;;5060359;28;20312;-80
2022/08/27 10:03:42;;;;;;;2.50;1.38;;;25.40;98.30;;;;;;5059092;28;20201;-78
2022/08/27 10:06:10;;;;;;;4.97;1.50;;;25.30;98.40;;;;;;5054008;28;20237;-80
2022/08/27 10:08:47;;;;;;;5.32;1.90;;;25.20;98.60;;;;;;5059296;28;20674;-80
2022/08/27 10:11:17;;;;;;;5.75;1.50;;;25.00;98.60;;;;;;5058876;28;20205;-80
2022/08/27 10:14:00;;;;;;;3.80;1.70;;;24.90;98.90;;;;;;5058604;28;20215;-80
2022/08/27 10:16:53;;;;;;;4.93;1.48;;;24.80;99.20;;;;;;5056705;28;20209;-81
2022/08/27 10:19:43;;;;;;;2.90;1.35;;;24.60;99.20;;;;;;5060586;28;20220;-79
2022/08/27 10:22:21;;;;;;;4.40;1.45;;;24.50;99.70;;;;;;5058425;28;20228;-79
2022/08/27 10:25:06;;;;;;;5.40;1.70;;;24.60;99.90;;;;;;5060384;28;20672;-79
2022/08/27 10:27:54;;;;;;;4.20;1.55;;;24.90;99.80;;;;;;5066836;28;20244;-79
2022/08/27 10:30:42;;;;;;;2.28;1.55;;;25.20;99.30;;;;;;5082478;28;20311;-77
2022/08/27 10:33:20;;;;;;;4.15;1.73;;;25.30;99.10;;;;;;5073335;28;20255;-78
2022/08/27 10:36:01;;;;;;;4.72;1.42;;;25.10;99.10;;;;;;5079302;28;20290;-78
2022/08/27 10:38:36;;;;;;;2.42;1.40;;;25.00;99.30;;;;;;5069185;28;20765;-78
2022/08/27 10:41:19;;;;;;;5.38;1.50;;;24.70;99.50;;;;;;5076531;28;20204;-80
2022/08/27 10:44:16;;;;;;;4.43;1.73;;;24.60;99.70;;;;;;5080744;28;20623;-79
2022/08/27 10:47:14;;;;;;;6.18;1.60;;;24.50;99.90;;;;;;4971340;28;20281;-79
2022/08/27 10:49:41;;;;;;;5.60;1.65;;;24.40;99.90;;;;;;5065457;28;20247;-79
2022/08/27 10:52:32;;;;;;;4.63;1.77;;;24.40;99.90;;;;;;5080025;28;20215;-79
2022/08/27 10:55:04;;;;;;;4.72;1.77;;;24.30;99.90;;;;;;5065305;28;20660;-79
2022/08/27 10:58:07;;;;;;;3.47;1.65;;;24.40;99.90;;;;;;5065811;28;20281;-80
2022/08/27 11:00:56;;;;;;;4.40;1.40;;;24.90;99.90;;;;;;5066930;28;20722;-78
2022/08/27 11:03:36;;;;;;;3.67;1.52;;;24.50;99.90;;;;;;5079904;28;20223;-79
2022/08/27 11:06:26;;;;;;;4.53;1.60;;;24.50;99.90;;;;;;5075051;28;20580;-78
2022/08/27 11:09:09;;;;;;;4.13;1.55;;;24.60;99.90;;;;;;5068914;28;20711;-80
2022/08/27 11:11:41;;;;;;;4.55;1.30;;;24.50;99.90;;;;;;5075585;28;20215;-79
2022/08/27 11:14:28;;;;;;;2.83;1.77;;;24.60;99.90;;;;;;5075502;28;20219;-78
2022/08/27 11:17:02;;;;;;;4.85;1.50;;;24.50;99.90;;;;;;5075712;28;20668;-80
2022/08/27 11:19:55;;;;;;;6.30;1.92;;;24.60;99.90;;;;;;5065551;28;20325;-78
2022/08/27 11:22:30;;;;;;;5.78;1.73;;;24.60;99.90;;;;;;5074201;28;20223;-79
2022/08/27 11:25:09;;;;;;;4.35;1.70;;;24.50;99.90;;;;;;5054774;28;20295;-79
2022/08/27 11:27:41;;;;;;;5.53;1.52;;;24.50;99.90;;;;;;5080101;28;20238;-80
2022/08/27 11:30:26;;;;;;;5.20;1.50;;;24.50;99.90;;;;;;5058857;28;20233;-79
2022/08/27 11:33:33;;;;;;;5.05;1.88;;;24.90;99.90;;;;;;5063348;28;20227;-80
2022/08/27 11:36:23;;;;;;;3.00;1.30;;;24.40;99.90;;;;;;5064127;28;20252;-78
2022/08/27 11:39:14;;;;;;;5.57;1.80;;;24.70;99.90;;;;;;5063137;28;20228;-81
2022/08/27 11:42:01;;;;;;;3.28;1.50;;;24.70;99.90;;;;;;5077662;28;20699;-80
2022/08/27 11:44:28;;;;;;;5.05;1.67;;;24.70;99.90;;;;;;5079267;28;20593;-79
2022/08/27 11:47:08;;;;;;;7.15;2.00;;;24.70;99.90;;;;;;5061421;28;20284;-79
2022/08/27 11:49:57;;;;;;;6.35;1.95;;;24.60;99.90;;;;;;5062855;28;20261;-77
2022/08/27 11:52:56;;;;;;;4.47;1.83;;;24.60;99.90;;;;;;5075220;28;20227;-79
2022/08/27 11:55:25;;;;;;;4.25;1.60;;;24.40;99.90;;;;;;5071769;28;20200;-80
2022/08/27 11:58:16;;;;;;;5.90;1.58;;;24.50;99.90;;;;;;5070796;28;20704;-79
2022/08/27 12:00:45;;;;;;;4.95;1.42;;;24.70;99.90;;;;;;5058110;28;20213;-80
2022/08/27 12:03:18;;;;;;;6.25;1.60;;;24.90;99.90;;;;;;5076025;28;20567;-80
2022/08/27 12:06:03;;;;;;;3.20;1.60;;;25.00;99.90;;;;;;5080798;28;20223;-79
2022/08/27 12:08:33;;;;;;;7.47;1.65;;;25.10;99.90;;;;;;5061198;28;20192;-79
2022/08/27 12:11:20;;;;;;;6.07;1.55;;;25.20;99.90;;;;;;5075851;28;20208;-80
2022/08/27 12:14:20;;;;;;;4.30;1.70;;;25.20;99.90;;;;;;5076734;28;20782;-77
2022/08/27 12:17:12;;;;;;;3.38;1.63;;;25.20;99.90;;;;;;5063262;28;20648;-77
2022/08/27 12:20:13;;;;;;;4.82;1.80;;;25.10;99.90;;;;;;5060930;28;20270;-78
2022/08/27 12:26:25;;;;;;;7.97;1.88;;;25.10;99.90;;;;;;5079932;28;20202;-78
2022/08/27 12:29:19;;;;;;;3.58;1.38;;;25.00;99.90;;;;;;5065814;28;20687;-80
2022/08/27 12:32:18;;;;;;;3.60;1.60;;;25.10;99.90;;;;;;5067334;28;20204;-81
2022/08/27 12:35:07;;;;;;;3.33;1.35;;;25.20;99.90;;;;;;5060004;28;20210;-77
2022/08/27 12:37:39;;;;;;;5.07;1.73;;;25.20;99.90;;;;;;5063320;28;20224;-82
2022/08/27 12:40:26;;;;;;;10.15;1.98;;;25.70;99.90;;;;;;5061164;28;20251;-80
2022/08/27 12:43:13;;;;;;;3.35;1.20;;;25.60;99.90;;;;;;5075733;28;20208;-80
2022/08/27 12:46:00;;;;;;;3.20;1.40;;;25.80;99.80;;;;;;5087744;28;20223;-79
2022/08/27 12:48:35;;;;;;;3.20;1.70;;;25.80;99.20;;;;;;5070199;28;20207;-79
2022/08/27 12:51:07;;;;;;;7.07;1.80;;;25.90;99.00;;;;;;5080411;28;20200;-78
2022/08/27 12:53:56;;;;;;;3.63;1.40;;;26.10;98.40;;;;;;5085047;28;20501;-79
2022/08/27 12:56:54;;;;;;;6.22;1.63;;;26.00;98.10;;;;;;5082248;28;20283;-77
2022/08/27 13:00:01;;;;;;;4.18;1.70;;;26.00;98.20;;;;;;5082785;28;20211;-79
2022/08/27 13:02:51;;;;;;;4.35;1.73;;;25.90;98.30;;;;;;5063991;28;20263;-80
2022/08/27 13:05:21;;;;;;;7.25;1.65;;;25.80;98.70;;;;;;5079977;28;20660;-78
2022/08/27 13:07:50;;;;;;;4.10;1.65;;;25.80;98.80;;;;;;5082899;28;20221;-80
2022/08/27 13:10:26;;;;;;;4.18;1.60;;;25.80;98.90;;;;;;5081319;28;20200;-78
2022/08/27 13:13:06;;;;;;;3.22;1.40;;;25.90;98.60;;;;;;5079565;28;20196;-79
2022/08/27 13:15:34;;;;;;;3.85;1.70;;;26.00;98.60;;;;;;5080542;28;20204;-79
2022/08/27 13:18:06;;;;;;;3.75;1.50;;;26.00;98.90;;;;;;5076530;28;20200;-78
2022/08/27 13:20:37;;;;;;;4.38;1.67;;;26.10;99.00;;;;;;5081269;28;20265;-78
2022/08/27 13:23:23;;;;;;;6.18;1.77;;;26.20;98.90;;;;;;5085409;28;20188;-80
2022/08/27 13:26:08;;;;;;;2.97;1.45;;;26.20;98.20;;;;;;5082992;28;20306;-80
2022/08/27 13:28:38;;;;;;;4.65;1.55;;;26.20;98.20;;;;;;5080922;28;20323;-77
2022/08/27 13:31:07;;;;;;;3.35;1.45;;;26.20;97.90;;;;;;5079863;28;20753;-79
2022/08/27 13:33:37;;;;;;;7.97;1.98;;;26.10;97.70;;;;;;5080433;28;20611;-79
2022/08/27 13:36:08;;;;;;;4.43;1.50;;;26.10;98.00;;;;;;5081913;28;20230;-80